Gillett, Texas
Current Conditions -  °F | °C
As of 6:55 PM on Saturday 22 Nov 2014 (Local Time) from KT20 Reporting Station
Overcast Overcast  
Wind Chill: 71°   Ceiling: 1200
Heat Index: 71°   Visibility: 10mi
Dew Point: 69°   Wind: 9mph
Humidity: 94%   Direction: 170°S
Pressure: 29.76"   Gusts: NA
Location:  29.13°N, 97.78°W
Report Text: KT20 230055Z AUTO 17008KT 10SM BKN012 OVC020 22/21 A2976 RMK AO2 LTG DSNT NW THRU SE T02150205
Loading
Personal Weather Stations






























Interactive Weather Map New forecast layout! Learn more

10-Day Weather Forecast

Advertisements
Track Severe Weather on mobile